createdAt,value
2018-04-25T00:00:40.770Z,13.00
2018-04-25T00:03:07.843Z,11.30
2018-04-25T00:05:34.918Z,18.67
2018-04-25T00:08:01.946Z,15.10
2018-04-25T00:10:28.935Z,19.07
2018-04-25T00:12:55.942Z,16.70
2018-04-25T00:15:22.996Z,13.90
2018-04-25T00:17:50.835Z,12.83
2018-04-25T00:20:17.897Z,15.77
2018-04-25T00:22:44.920Z,17.90
2018-04-25T00:25:11.897Z,16.00
2018-04-25T00:27:38.874Z,14.67
2018-04-25T00:30:06.020Z,17.40
2018-04-25T00:32:33.029Z,18.17
2018-04-25T00:35:00.005Z,18.30
2018-04-25T00:37:26.945Z,16.50
2018-04-25T00:39:54.644Z,18.23
2018-04-25T00:42:21.783Z,14.03
2018-04-25T00:44:48.855Z,21.07
2018-04-25T00:47:15.974Z,17.67
2018-04-25T00:49:47.179Z,18.17
2018-04-25T00:52:14.283Z,17.47
2018-04-25T00:54:41.427Z,17.20
2018-04-25T00:57:08.535Z,18.30
2018-04-25T00:59:35.658Z,14.53
2018-04-25T01:02:03.624Z,19.30
2018-04-25T01:04:31.857Z,18.13
2018-04-25T01:06:58.992Z,20.33
2018-04-25T01:09:26.129Z,17.13
2018-04-25T01:11:54.031Z,15.70
2018-04-25T01:14:21.104Z,17.33
2018-04-25T01:16:48.312Z,19.07
2018-04-25T01:19:15.445Z,16.53
2018-04-25T01:21:42.620Z,14.77
2018-04-25T01:24:10.611Z,15.97
2018-04-25T01:26:37.795Z,18.33
2018-04-25T01:29:05.035Z,18.83
2018-04-25T01:31:40.127Z,17.77
2018-04-25T01:37:27.300Z,19.50
2018-04-25T01:40:06.189Z,19.43
2018-04-25T01:42:55.489Z,18.73
2018-04-25T01:45:40.354Z,21.90
2018-04-25T01:48:16.590Z,18.20
2018-04-25T01:50:44.581Z,15.70
2018-04-25T01:53:30.329Z,20.23
2018-04-25T01:56:16.282Z,15.93
2018-04-25T01:59:01.638Z,20.50
2018-04-25T02:01:28.199Z,13.63
2018-04-25T02:04:00.647Z,21.93
2018-04-25T02:06:27.749Z,21.27
2018-04-25T02:08:55.522Z,16.87
2018-04-25T02:11:23.394Z,21.97
2018-04-25T02:13:50.490Z,25.77
2018-04-25T02:16:17.549Z,17.63
2018-04-25T02:18:44.607Z,22.43
2018-04-25T02:21:11.644Z,17.07
2018-04-25T02:23:38.682Z,18.97
2018-04-25T02:26:05.733Z,16.03
2018-04-25T02:28:32.773Z,23.37
2018-04-25T02:30:59.806Z,21.33
2018-04-25T02:33:26.881Z,20.53
2018-04-25T02:35:53.909Z,19.67
2018-04-25T02:38:20.959Z,21.63
2018-04-25T02:40:48.035Z,21.30
2018-04-25T02:43:15.131Z,18.23
2018-04-25T02:45:44.069Z,19.07
2018-04-25T02:48:11.177Z,22.30
2018-04-25T02:50:38.247Z,22.57
2018-04-25T02:53:05.330Z,20.30
2018-04-25T02:55:32.384Z,18.43
2018-04-25T02:58:00.115Z,22.13
2018-04-25T03:00:27.120Z,22.70
2018-04-25T03:02:54.115Z,19.90
2018-04-25T03:05:21.088Z,20.13
2018-04-25T03:07:48.098Z,16.30
2018-04-25T03:10:15.048Z,21.07
2018-04-25T03:12:42.045Z,19.63
2018-04-25T03:15:09.775Z,21.80
2018-04-25T03:17:36.739Z,16.63
2018-04-25T03:20:03.720Z,16.33
2018-04-25T03:22:30.852Z,20.77
2018-04-25T03:24:57.855Z,18.97
2018-04-25T03:27:24.890Z,22.37
2018-04-25T03:29:51.930Z,22.03
2018-04-25T03:32:18.958Z,21.30
2018-04-25T03:34:46.763Z,23.37
2018-04-25T03:37:13.842Z,20.27
2018-04-25T03:39:41.634Z,17.53
2018-04-25T03:42:08.710Z,23.70
2018-04-25T03:44:35.837Z,19.57
2018-04-25T03:47:02.953Z,20.03
2018-04-25T03:49:30.787Z,18.63
2018-04-25T03:51:57.857Z,19.23
2018-04-25T03:54:24.922Z,23.90
2018-04-25T03:56:52.057Z,26.50
2018-04-25T03:59:19.107Z,21.47
2018-04-25T04:01:47.032Z,25.63
2018-04-25T04:04:14.090Z,24.93
2018-04-25T04:06:41.149Z,23.27
2018-04-25T04:09:08.187Z,27.47
2018-04-25T04:11:35.287Z,25.07
2018-04-25T04:14:02.379Z,25.77
2018-04-25T04:16:29.368Z,24.97
2018-04-25T04:18:57.093Z,28.80
2018-04-25T04:21:24.080Z,25.37
2018-04-25T04:23:51.911Z,28.40
2018-04-25T04:26:18.987Z,31.57
2018-04-25T04:28:46.029Z,28.73
2018-04-25T04:31:13.900Z,29.43
2018-04-25T04:33:41.722Z,22.23
2018-04-25T04:36:08.783Z,22.27
2018-04-25T04:38:35.877Z,27.70
2018-04-25T04:41:02.970Z,22.80
2018-04-25T04:43:31.095Z,23.07
2018-04-25T04:45:58.162Z,22.33
2018-04-25T04:48:25.309Z,20.53
2018-04-25T04:50:52.354Z,24.97
2018-04-25T04:53:19.407Z,23.93
2018-04-25T04:55:46.447Z,26.07
2018-04-25T04:58:13.525Z,23.77
2018-04-25T05:00:40.580Z,22.33
2018-04-25T05:03:07.687Z,21.30
2018-04-25T05:05:34.709Z,22.00
2018-04-25T05:08:02.524Z,19.33
2018-04-25T05:10:29.584Z,21.30
2018-04-25T05:12:56.645Z,23.60
2018-04-25T05:15:23.685Z,20.03
2018-04-25T05:17:50.773Z,19.40
2018-04-25T05:20:18.828Z,16.80
2018-04-25T05:22:47.395Z,20.07
2018-04-25T05:25:14.572Z,18.63
2018-04-25T05:27:42.389Z,15.87
2018-04-25T05:30:09.482Z,16.87
2018-04-25T05:32:36.584Z,18.67
2018-04-25T05:35:03.724Z,17.70
2018-04-25T05:37:30.816Z,18.07
2018-04-25T05:39:57.903Z,24.33
2018-04-25T05:42:24.999Z,19.83
2018-04-25T05:44:52.096Z,21.10
2018-04-25T05:47:19.959Z,19.40
2018-04-25T05:49:47.778Z,19.63
2018-04-25T05:52:14.883Z,19.80
2018-04-25T05:54:41.926Z,19.13
2018-04-25T05:57:08.944Z,22.40
2018-04-25T05:59:35.968Z,16.67
2018-04-25T06:02:03.016Z,23.43
2018-04-25T06:04:30.026Z,24.20
2018-04-25T06:06:57.120Z,15.57
2018-04-25T06:09:24.218Z,19.40
2018-04-25T06:11:51.498Z,20.80
2018-04-25T06:14:18.566Z,24.53
2018-04-25T06:16:45.684Z,19.50
2018-04-25T06:19:12.794Z,20.67
2018-04-25T06:21:39.887Z,22.10
2018-04-25T06:24:06.991Z,20.70
2018-04-25T06:26:34.994Z,21.63
2018-04-25T06:29:02.064Z,20.97
2018-04-25T06:31:29.177Z,16.37
2018-04-25T06:33:56.279Z,20.70
2018-04-25T06:36:23.436Z,15.17
2018-04-25T06:38:50.557Z,19.67
2018-04-25T06:41:17.642Z,22.87
2018-04-25T06:43:44.707Z,20.97
2018-04-25T06:46:11.907Z,20.10
2018-04-25T06:48:38.969Z,17.07
2018-04-25T06:51:06.073Z,19.93
2018-04-25T06:53:33.182Z,17.03
2018-04-25T06:56:00.275Z,19.83
2018-04-25T06:58:28.041Z,19.07
2018-04-25T07:00:55.078Z,16.87
2018-04-25T07:03:22.860Z,20.97
2018-04-25T07:05:49.886Z,15.57
2018-04-25T07:10:50.245Z,21.13
2018-04-25T07:13:17.330Z,14.97
2018-04-25T07:15:44.394Z,19.33
2018-04-25T07:18:21.926Z,19.10
2018-04-25T07:20:48.970Z,16.17
2018-04-25T07:23:16.691Z,18.23
2018-04-25T07:25:43.706Z,17.00
2018-04-25T07:28:10.742Z,17.97
2018-04-25T07:30:37.769Z,18.77
2018-04-25T07:33:05.536Z,14.57
2018-04-25T07:35:33.304Z,13.77
2018-04-25T07:38:01.115Z,16.07
2018-04-25T07:40:28.180Z,10.40
2018-04-25T07:42:55.227Z,14.03
2018-04-25T07:45:22.249Z,9.93
2018-04-25T07:47:49.263Z,12.37
2018-04-25T07:50:17.079Z,10.97
2018-04-25T07:52:44.125Z,10.03
2018-04-25T07:55:11.187Z,11.00
2018-04-25T07:57:38.223Z,11.53
2018-04-25T08:00:05.354Z,10.97
2018-04-25T08:02:32.392Z,10.23
2018-04-25T08:04:59.434Z,9.93
2018-04-25T08:07:26.531Z,9.63
2018-04-25T08:09:53.584Z,9.97
2018-04-25T08:12:38.701Z,10.97
2018-04-25T08:15:26.136Z,8.67
2018-04-25T08:21:18.064Z,12.20
2018-04-25T08:23:45.163Z,9.10
2018-04-25T08:26:12.248Z,9.57
2018-04-25T08:28:39.506Z,8.97
2018-04-25T08:31:06.593Z,9.43
2018-04-25T08:33:33.662Z,7.87
2018-04-25T08:36:00.876Z,10.07
2018-04-25T08:38:28.674Z,10.07
2018-04-25T08:40:55.714Z,9.97
2018-04-25T08:43:22.754Z,9.07
2018-04-25T08:45:49.773Z,8.13
2018-04-25T08:48:17.534Z,9.40
2018-04-25T08:50:44.722Z,8.67
2018-04-25T08:53:11.776Z,10.70
2018-04-25T08:55:38.836Z,10.47
2018-04-25T08:58:05.892Z,8.33
2018-04-25T09:00:34.244Z,9.67
2018-04-25T09:03:01.304Z,9.13
2018-04-25T09:05:28.364Z,11.10
2018-04-25T09:07:55.393Z,9.40
2018-04-25T09:10:22.450Z,12.73
2018-04-25T09:12:49.469Z,8.53
2018-04-25T09:15:16.662Z,7.53
2018-04-25T09:17:43.771Z,8.20
2018-04-25T09:20:11.583Z,8.90
2018-04-25T09:22:38.633Z,8.83
2018-04-25T09:25:05.889Z,9.77
2018-04-25T09:27:32.983Z,11.07
2018-04-25T09:30:00.166Z,8.77
2018-04-25T09:32:27.166Z,8.17
2018-04-25T09:34:54.993Z,8.47
2018-04-25T09:37:22.165Z,10.10
2018-04-25T09:39:49.218Z,6.30
2018-04-25T09:42:16.961Z,9.83
2018-04-25T09:44:44.146Z,7.03
2018-04-25T09:47:11.215Z,9.70
2018-04-25T09:49:38.239Z,11.27
2018-04-25T09:52:06.081Z,7.30
2018-04-25T09:54:33.148Z,10.93
2018-04-25T09:57:01.002Z,8.83
2018-04-25T09:59:28.048Z,8.43
2018-04-25T10:02:01.441Z,11.00
2018-04-25T10:04:28.499Z,7.70
2018-04-25T10:06:56.306Z,7.90
2018-04-25T10:09:23.391Z,10.77
2018-04-25T10:11:50.413Z,6.80
2018-04-25T10:14:17.489Z,6.37
2018-04-25T10:16:44.583Z,8.43
2018-04-25T10:19:11.636Z,9.43
2018-04-25T10:21:38.811Z,8.33
2018-04-25T10:24:05.915Z,6.13
2018-04-25T10:26:33.037Z,8.57
2018-04-25T10:29:00.161Z,9.30
2018-04-25T10:31:27.287Z,5.77
2018-04-25T10:33:54.377Z,4.77
2018-04-25T10:36:21.555Z,7.50
2018-04-25T10:38:49.505Z,6.17
2018-04-25T10:41:16.602Z,5.07
2018-04-25T10:43:43.793Z,5.87
2018-04-25T10:46:10.943Z,5.20
2018-04-25T10:48:37.996Z,6.47
2018-04-25T10:51:05.056Z,6.77
2018-04-25T10:53:33.128Z,4.67
2018-04-25T10:56:00.229Z,5.70
2018-04-25T10:58:28.126Z,6.28
2018-04-25T11:00:56.101Z,3.87
2018-04-25T11:03:23.333Z,7.67
2018-04-25T11:05:50.389Z,4.07
2018-04-25T11:08:17.459Z,4.80
2018-04-25T11:10:45.355Z,4.60
2018-04-25T11:13:13.151Z,7.13
2018-04-25T11:15:40.241Z,5.68
2018-04-25T11:18:07.286Z,7.07
2018-04-25T11:20:34.426Z,5.93
2018-04-25T11:23:01.544Z,4.55
2018-04-25T11:25:28.598Z,4.50
2018-04-25T11:27:57.458Z,7.62
2018-04-25T11:30:25.270Z,9.33
2018-04-25T11:32:53.105Z,7.18
2018-04-25T11:35:21.065Z,5.82
2018-04-25T11:37:48.175Z,4.17
2018-04-25T11:40:15.312Z,6.45
2018-04-25T11:42:42.427Z,8.10
2018-04-25T11:45:09.515Z,8.95
2018-04-25T11:47:36.612Z,7.47
2018-04-25T11:50:03.787Z,6.70
2018-04-25T11:52:31.710Z,5.57
2018-04-25T11:54:59.518Z,4.30
2018-04-25T11:57:26.740Z,5.33
2018-04-25T11:59:54.029Z,5.70
2018-04-25T12:02:21.070Z,4.93
2018-04-25T12:04:48.150Z,5.97
2018-04-25T12:07:15.207Z,6.10
2018-04-25T12:09:42.255Z,3.30
2018-04-25T12:12:09.730Z,4.13
2018-04-25T12:14:37.533Z,7.37
2018-04-25T12:17:04.695Z,4.75
2018-04-25T12:19:31.840Z,6.20
2018-04-25T12:21:58.913Z,7.43
2018-04-25T12:24:26.035Z,4.85
2018-04-25T12:26:53.823Z,5.90
2018-04-25T12:29:20.902Z,8.07
2018-04-25T12:31:48.098Z,5.82
2018-04-25T12:34:15.320Z,7.03
2018-04-25T12:36:43.122Z,6.20
2018-04-25T12:39:10.216Z,4.75
2018-04-25T12:41:37.359Z,7.25
2018-04-25T12:44:04.376Z,7.03
2018-04-25T12:46:31.495Z,6.12
2018-04-25T12:48:58.940Z,8.05
2018-04-25T12:51:26.835Z,3.65
2018-04-25T12:53:53.897Z,4.68
2018-04-25T12:56:21.075Z,7.45
2018-04-25T12:58:48.123Z,6.20
2018-04-25T13:01:15.238Z,7.43
2018-04-25T13:03:42.323Z,4.40
2018-04-25T13:06:09.473Z,5.43
2018-04-25T13:08:36.610Z,4.17
2018-04-25T13:11:03.703Z,6.47
2018-04-25T13:13:31.701Z,5.50
2018-04-25T13:15:58.921Z,3.50
2018-04-25T13:18:26.030Z,6.53
2018-04-25T13:20:53.203Z,5.40
2018-04-25T13:23:20.857Z,4.20
2018-04-25T13:25:47.947Z,6.90
2018-04-25T13:28:15.723Z,8.65
2018-04-25T13:30:42.806Z,5.12
2018-04-25T13:33:09.873Z,5.95
2018-04-25T13:35:37.022Z,6.97
2018-04-25T13:38:04.112Z,5.07
2018-04-25T13:40:31.192Z,5.95
2018-04-25T13:42:58.332Z,6.35
2018-04-25T13:45:25.385Z,5.40
2018-04-25T13:47:52.509Z,5.23
2018-04-25T13:50:19.545Z,5.20
2018-04-25T13:52:46.617Z,5.97
2018-04-25T13:55:13.706Z,3.77
2018-04-25T13:57:40.815Z,5.00
2018-04-25T14:00:07.850Z,5.97
2018-04-25T14:02:34.912Z,6.50
2018-04-25T14:05:01.982Z,5.23
2018-04-25T14:07:29.020Z,6.20
2018-04-25T14:09:56.106Z,7.47
2018-04-25T14:12:23.133Z,7.53
2018-04-25T14:14:50.168Z,3.77
2018-04-25T14:17:17.203Z,4.83
2018-04-25T14:19:44.283Z,6.20
2018-04-25T14:22:11.318Z,7.03
2018-04-25T14:24:38.480Z,5.50
2018-04-25T14:27:05.586Z,6.63
2018-04-25T14:29:32.666Z,5.60
2018-04-25T14:32:00.015Z,6.72
2018-04-25T14:34:27.079Z,6.95
2018-04-25T14:36:54.141Z,8.10
2018-04-25T14:39:21.189Z,4.53
2018-04-25T14:41:48.242Z,4.90
2018-04-25T14:44:15.332Z,6.63
2018-04-25T14:46:42.370Z,5.90
2018-04-25T14:49:09.415Z,8.50
2018-04-25T14:51:37.865Z,6.53
2018-04-25T14:54:05.713Z,5.13
2018-04-25T14:56:32.756Z,6.30
2018-04-25T14:58:59.888Z,6.83
2018-04-25T15:01:27.098Z,7.03
2018-04-25T15:03:54.996Z,5.40
2018-04-25T15:06:22.101Z,5.17
2018-04-25T15:08:49.146Z,5.87
2018-04-25T15:11:16.215Z,7.90
2018-04-25T15:13:44.069Z,7.43
2018-04-25T15:16:11.231Z,5.20
2018-04-25T15:18:39.007Z,5.17
2018-04-25T15:21:06.132Z,6.47
2018-04-25T15:23:33.955Z,6.60
2018-04-25T15:26:01.011Z,7.27
2018-04-25T15:28:28.876Z,5.27
2018-04-25T15:30:55.978Z,10.57
2018-04-25T15:33:22.966Z,4.30
2018-04-25T15:35:49.936Z,7.83
2018-04-25T15:38:16.998Z,5.93
2018-04-25T15:40:43.967Z,6.20
2018-04-25T15:43:10.966Z,4.97
2018-04-25T15:45:38.001Z,6.73
2018-04-25T15:48:05.099Z,6.53
2018-04-25T15:50:32.891Z,6.57
2018-04-25T15:52:59.879Z,5.40
2018-04-25T15:55:26.916Z,6.70
2018-04-25T15:57:53.975Z,5.67
2018-04-25T16:00:20.964Z,5.80
2018-04-25T16:02:48.722Z,6.77
2018-04-25T16:05:15.732Z,8.90
2018-04-25T16:07:42.854Z,6.60
2018-04-25T16:10:09.918Z,5.30
2018-04-25T16:12:37.012Z,4.67
2018-04-25T16:15:04.855Z,6.57
2018-04-25T16:17:31.876Z,5.00
2018-04-25T16:19:58.877Z,5.43
2018-04-25T16:22:26.618Z,4.20
2018-04-25T16:24:53.701Z,4.70
2018-04-25T16:27:20.800Z,6.23
2018-04-25T16:29:47.925Z,3.87
2018-04-25T16:32:14.943Z,4.47
2018-04-25T16:34:41.945Z,4.30
2018-04-25T16:37:09.045Z,6.00
2018-04-25T16:39:36.060Z,4.93
2018-04-25T16:42:03.179Z,5.43
2018-04-25T16:44:30.240Z,7.67
2018-04-25T16:46:57.298Z,6.93
2018-04-25T16:49:24.315Z,6.73
2018-04-25T16:51:51.453Z,4.47
2018-04-25T16:54:18.460Z,5.17
2018-04-25T16:56:46.221Z,7.27
2018-04-25T16:59:13.245Z,4.63
2018-04-25T17:01:40.254Z,7.17
2018-04-25T17:04:07.295Z,3.63
2018-04-25T17:06:34.383Z,4.53
2018-04-25T17:09:01.460Z,6.67
2018-04-25T17:11:29.225Z,4.50
2018-04-25T17:13:56.233Z,7.47
2018-04-25T17:16:23.280Z,5.00
2018-04-25T17:18:50.350Z,5.40
2018-04-25T17:21:17.369Z,4.67
2018-04-25T17:23:44.463Z,3.80
2018-04-25T17:26:12.234Z,3.90
2018-04-25T17:28:39.986Z,4.50
2018-04-25T17:31:06.983Z,4.60
2018-04-25T17:33:33.997Z,5.03
2018-04-25T17:36:01.035Z,5.13
2018-04-25T17:38:28.752Z,5.23
2018-04-25T17:40:55.789Z,4.67
2018-04-25T17:43:22.890Z,5.87
2018-04-25T17:45:49.939Z,6.53
2018-04-25T17:48:17.731Z,4.90
2018-04-25T17:50:44.800Z,7.00
2018-04-25T17:53:11.795Z,10.87
2018-04-25T17:55:40.214Z,6.70
2018-04-25T17:58:07.265Z,4.33
2018-04-25T18:00:45.003Z,6.73
2018-04-25T18:15:55.842Z,5.63
2018-04-25T18:18:22.882Z,7.73
2018-04-25T18:20:49.949Z,6.40
2018-04-25T18:23:17.014Z,5.77
2018-04-25T18:25:45.345Z,5.93
2018-04-25T18:28:13.536Z,6.90
2018-04-25T18:30:41.038Z,6.80
2018-04-25T18:33:08.084Z,7.77
2018-04-25T18:35:35.918Z,6.33
2018-04-25T18:38:03.097Z,10.10
2018-04-25T18:40:30.113Z,9.80
2018-04-25T18:42:57.235Z,8.80
2018-04-25T18:45:24.238Z,5.60
2018-04-25T18:47:51.281Z,6.77
2018-04-25T18:50:18.290Z,8.47
2018-04-25T18:52:45.336Z,4.80
2018-04-25T18:55:12.355Z,5.10
2018-04-25T18:57:39.478Z,28.97
2018-04-25T19:00:06.501Z,82.90
2018-04-25T19:02:35.181Z,27.63
2018-04-25T19:05:02.729Z,62.80
2018-04-25T19:07:29.783Z,29.87
2018-04-25T19:09:56.909Z,50.97
2018-04-25T19:12:24.269Z,97.73
2018-04-25T19:14:51.346Z,122.10
2018-04-25T19:17:18.355Z,83.77
2018-04-25T19:19:46.220Z,31.63
2018-04-25T19:22:14.065Z,10.80
2018-04-25T19:24:41.130Z,10.53
2018-04-25T19:27:10.352Z,11.43
2018-04-25T19:29:37.484Z,6.67
2018-04-25T19:32:05.012Z,13.70
2018-04-25T19:34:32.064Z,14.80
2018-04-25T19:36:59.162Z,29.77
2018-04-25T19:39:26.291Z,72.37
2018-04-25T19:41:54.055Z,55.33
2018-04-25T19:44:21.852Z,16.77
2018-04-25T19:46:49.463Z,36.10
2018-04-25T19:49:16.496Z,17.13
2018-04-25T19:51:43.608Z,17.73
2018-04-25T19:54:11.573Z,8.30
2018-04-25T19:56:39.268Z,8.73
2018-04-25T19:59:06.511Z,8.77
2018-04-25T20:01:33.575Z,12.83
2018-04-25T20:04:01.747Z,11.17
2018-04-25T20:06:31.050Z,12.07
2018-04-25T20:08:58.102Z,10.83
2018-04-25T20:11:25.973Z,8.23
2018-04-25T20:13:53.103Z,9.50
2018-04-25T20:16:21.395Z,6.03
2018-04-25T20:18:48.457Z,8.50
2018-04-25T20:21:15.530Z,7.93
2018-04-25T20:23:42.580Z,9.57
2018-04-25T20:26:11.311Z,6.27
2018-04-25T20:28:38.450Z,6.37
2018-04-25T20:31:05.582Z,11.67
2018-04-25T20:33:33.385Z,5.27
2018-04-25T20:36:00.472Z,6.77
2018-04-25T20:38:29.282Z,10.13
2018-04-25T20:40:58.289Z,8.37
2018-04-25T20:43:25.405Z,7.47
2018-04-25T20:45:53.196Z,7.33
2018-04-25T20:48:20.285Z,9.53
2018-04-25T20:50:47.377Z,7.67
2018-04-25T20:53:15.394Z,10.87
2018-04-25T20:55:42.559Z,9.90
2018-04-25T20:58:10.920Z,10.43
2018-04-25T21:00:39.170Z,9.03
2018-04-25T21:03:06.290Z,9.63
2018-04-25T21:05:34.106Z,11.23
2018-04-25T21:08:02.204Z,9.53
2018-04-25T21:10:29.245Z,9.27
2018-04-25T21:12:56.296Z,10.57
2018-04-25T21:15:23.332Z,11.23
2018-04-25T21:17:50.402Z,9.83
2018-04-25T21:20:17.512Z,10.87
2018-04-25T21:22:44.624Z,11.70
2018-04-25T21:25:11.675Z,9.93
2018-04-25T21:27:38.831Z,10.50
2018-04-25T21:30:05.952Z,8.00
2018-04-25T21:32:33.004Z,9.43
2018-04-25T21:35:00.855Z,9.83
2018-04-25T21:37:27.997Z,7.47
2018-04-25T21:39:55.070Z,7.33
2018-04-25T21:42:22.924Z,8.90
2018-04-25T21:44:49.989Z,8.90
2018-04-25T21:47:17.109Z,6.03
2018-04-25T21:49:44.301Z,6.17
2018-04-25T21:52:12.179Z,8.37
2018-04-25T21:54:39.199Z,7.57
2018-04-25T21:57:06.208Z,12.57
2018-04-25T21:59:33.365Z,7.53
2018-04-25T22:02:00.454Z,9.97
2018-04-25T22:04:28.266Z,8.07
2018-04-25T22:06:55.404Z,10.50
2018-04-25T22:09:23.227Z,8.27
2018-04-25T22:11:51.067Z,9.83
2018-04-25T22:14:18.177Z,7.53
2018-04-25T22:16:45.282Z,8.20
2018-04-25T22:19:12.295Z,9.90
2018-04-25T22:21:39.327Z,10.30
2018-04-25T22:24:06.337Z,8.23
2018-04-25T22:26:34.155Z,8.17
2018-04-25T22:29:01.159Z,6.57
2018-04-25T22:31:28.895Z,8.90
2018-04-25T22:33:55.907Z,7.23
2018-04-25T22:36:22.945Z,7.40
2018-04-25T22:38:50.121Z,8.27
2018-04-25T22:41:17.274Z,6.70
2018-04-25T22:43:44.336Z,9.73
2018-04-25T22:46:11.414Z,7.03
2018-04-25T22:48:38.414Z,9.40
2018-04-25T22:51:05.671Z,8.57
2018-04-25T22:53:32.672Z,8.03
2018-04-25T22:56:00.005Z,7.30
2018-04-25T22:58:27.024Z,9.87
2018-04-25T23:00:54.042Z,10.80
2018-04-25T23:03:21.133Z,8.87
2018-04-25T23:05:48.109Z,9.03
2018-04-25T23:08:15.932Z,10.90
2018-04-25T23:10:43.071Z,9.87
2018-04-25T23:13:10.179Z,9.73
2018-04-25T23:15:37.182Z,10.10
2018-04-25T23:18:04.272Z,9.63
2018-04-25T23:20:31.352Z,12.63
2018-04-25T23:22:58.377Z,12.77
2018-04-25T23:25:25.366Z,10.40
2018-04-25T23:27:52.379Z,11.20
2018-04-25T23:30:20.295Z,8.00
2018-04-25T23:32:47.291Z,7.93
2018-04-25T23:35:14.264Z,8.83
2018-04-25T23:37:41.269Z,8.00
2018-04-25T23:40:09.596Z,8.27
2018-04-25T23:42:36.589Z,8.80
2018-04-25T23:45:04.371Z,8.03
2018-04-25T23:47:31.552Z,9.97
2018-04-25T23:49:59.682Z,7.93
2018-04-25T23:52:27.451Z,9.63
2018-04-25T23:54:54.487Z,8.43
2018-04-25T23:57:22.332Z,7.73
2018-04-25T23:59:49.882Z,9.47
